x

South Santa Rosa Is. Ca (46069) Wave Buoy

2:50 - Sat 30th Jul 2016 All times are PDT. -7 hours from GMT.

  • Sig Wave height 4.6ft
  • Swell Direction
  • Peak Period 11s
  • Average Period 7s
  • Wind
    9mph, 11mph gusts
  • Sea Temp 68°f
  • Luft Temp 63°f
  • Sea Pressure 1011.7mb
  • South Santa Rosa Is. Ca
  • South Santa Rosa Is. Ca

More Historic Weather Station data

Upgrade to MSW Pro to gain access to the past 30 days of data for over 8000 Wavebouys and Weather Stations around the globe.

Join Pro

Comparision Forecast

View Surf forecast
   
Sa 07/30 2:50 4.5ft 11s 7s 9 11 mph 1011.7mb 68f 63f
1:50 5.5ft 10s 8s 7 9 mph 1012.2mb 68f 63f
12:50 5.5ft 11s 8s 7
mph
1012.2mb 68f 63f
11:50 6ft 11s 8s 7
mph
1012.3mb 67f 62f
10:50 5ft 9s 7s 9
mph
1012mb 67f 62f
9:50 5ft 10s 7s 7 9 mph 1012mb 67f 61f
8:50 5ft 10s 7s 7 9 mph 1011.9mb 67f 60f
7:50 5ft 9s 7s 11 13 mph 1011.1mb 67f 60f
6:50 5ft 10s 6s 11 16 mph 1010.7mb 67f 60f
5:50 5ft 9s 6s 16 18 mph 1009.4mb 67f 60f
4:50 5ft 10s 6s 13 18 mph 1009.1mb 67f 60f
3:50 5ft 10s 6s 13 18 mph 1009.1mb 67f 60f
2:50 5.5ft 10s 6s 16 20 mph 1009.2mb 67f 60f
1:50 5ft 8s 6s 16 18 mph 1009.5mb 67f 60f
12:50 5.5ft 6s 6s 16 18 mph 1009.9mb 67f 61f
Fr 07/29 10:50 5ft 6s 6s 20 22 mph 1009.3mb 66f 61f
9:50 5ft 9s 6s 18 20 mph 1009.4mb 66f 61f
8:50 5ft 6s 6s 20 22 mph 1009mb 66f 61f
7:50 5ft 10s 6s 20 25 mph 1008.9mb 66f 61f
6:50 5ft 9s 5s 20 25 mph 1008.9mb 66f 61f
5:50 5ft 10s 6s 20 25 mph 1009.4mb 66f 61f
4:50 5ft 10s 6s 20 25 mph 1009.7mb 66f 62f
3:50 5ft 10s 6s 18 22 mph 1010.1mb 66f 62f
2:50 5.5ft 10s 6s 18 22 mph 1010.7mb 66f 61f
1:50 6ft 10s 6s 16 20 mph 1011.1mb 66f 61f
12:50 5.5ft 9s 6s 16 20 mph 1011.4mb 66f 61f
11:50 5ft 11s 6s 18 20 mph 1011.2mb 66f 61f
10:50 5ft 10s 6s 16 20 mph 1011.6mb 66f 61f
9:50 5ft 10s 6s 16 20 mph 1011.4mb 66f 60f
8:50 5.5ft 10s 6s 16 20 mph 1011.6mb 66f 60f
7:50 5.5ft 10s 6s 18 22 mph 1010.9mb 66f 60f
6:50 6ft 9s 6s 18 20 mph 1010.5mb 66f 61f
5:50 6ft 10s 6s 18 20 mph 1010.5mb 66f 60f
4:50 6.5ft 9s 6s 18 25 mph 1010.2mb 66f 60f
3:50 6ft 10s 6s 20 25 mph 1010.3mb 66f 61f
2:50 6.5ft 10s 6s 18 22 mph 1010.3mb 67f 61f
1:50 6.5ft 10s 6s 20 25 mph 1010.2mb 67f 61f
12:50 7ft 10s 6s 20 25 mph 1010.6mb 67f 61f
Do 07/28 11:50 6.5ft 10s 6s 20 25 mph 1010.8mb 67f 61f
10:50 5.5ft 10s 6s 20 25 mph 1011.1mb 67f 61f
9:50 6ft 10s 6s 20 22 mph 1011.2mb 67f 61f
8:50 6ft 10s 6s 20 25 mph 1010.7mb 68f 62f
7:50 5.5ft 10s 6s 20 25 mph 1010.4mb 68f 62f
6:50 5.5ft 10s 6s 20 22 mph 1010.4mb 68f 62f
5:50 5ft 10s 6s 20 25 mph 1010.7mb 68f 62f
3:50 5ft 10s 6s 18 20 mph 1012mb 68f 62f
2:50 5ft 9s 6s 16 18 mph 1012.4mb 68f 62f
1:50 5ft 10s 6s 16 18 mph 1013.1mb 68f 62f
12:50 5.5ft 10s 7s 13 18 mph 1013.6mb 68f 62f
10:50 6ft 10s 7s 13 18 mph 1013.5mb 67f 62f
9:50 6ft 10s 7s 13 16 mph 1013.3mb 67f 62f
8:50 6ft 10s 7s 13 18 mph 1013.3mb 67f 61f
7:50 6ft 10s 6s 13 18 mph 1013.2mb 67f 61f
6:50 6.5ft 10s 7s 16 20 mph 1012.6mb 67f 61f
5:50 6.5ft 10s 7s 16 18 mph 1012mb 67f 61f
4:50 6.5ft 10s 7s 16 20 mph 1011.9mb 67f 61f
3:50 6.5ft 9s 7s 16 22 mph 1011.8mb 67f 61f
2:50 6ft 10s 7s 16 20 mph 1012mb 67f 60f
1:50 5.5ft 9s 6s 16 20 mph 1012.1mb 67f 61f
12:50 6ft 9s 7s 16 18 mph 1012.5mb 67f 61f
Mi 07/27 11:50 5.5ft 10s 6s 16 20 mph 1012.4mb 67f 61f
10:50 6ft 9s 7s 16 20 mph 1012.3mb 67f 62f
9:50 5ft 10s 7s 18 20 mph 1012.4mb 67f 62f
8:50 6ft 10s 7s 18 20 mph 1012.1mb 67f 62f
7:50 5ft 10s 7s 16 20 mph 1011.9mb 67f 62f
6:50 5ft 10s 7s 13 18 mph 1012mb 67f 62f
5:50 5ft 10s 7s 16 18 mph 1012.2mb 67f 62f
4:50 5ft 11s 7s 13 18 mph 1012.7mb 67f 62f
3:50 5ft 11s 7s 13 18 mph 1013.1mb 67f 62f
2:50 5ft 10s 7s 13 16 mph 1013.6mb 67f 61f
1:50 6ft 10s 8s 13 16 mph 1013.9mb 67f 61f
12:50 5ft 10s 8s 11 16 mph 1014.2mb 67f 61f
11:50 5.5ft 9s 8s 9 11 mph 1014.4mb 66f 61f
10:50 5ft 9s 8s 9 11 mph 1013.9mb 66f 60f
9:50 5.5ft 10s 8s 9 11 mph 1013.8mb 66f 60f
8:50 5.5ft 10s 8s 9 13 mph 1013.6mb 66f 60f
7:50 5ft 10s 7s 9 11 mph 1013.1mb 66f 60f
6:50 6ft 10s 8s 11 13 mph 1012.7mb 67f 60f
5:50 6.5ft 9s 8s 11 13 mph 1011.9mb 67f 60f
4:50 5.5ft 10s 7s 11 16 mph 1011.5mb 67f 60f
3:50 6ft 10s 7s 11 16 mph 1011.7mb 66f 59f
2:50 5.5ft 10s 7s 11 13 mph 1011.6mb 66f 59f
1:50 5.5ft 10s 7s 11 16 mph 1011.9mb 66f 60f
12:50 5.5ft 10s 7s 11 13 mph 1012.2mb 66f 60f
Di 07/26 11:50 5.5ft 9s 7s 13 18 mph 1011.9mb 67f 60f